createdAt,value
2018-08-23T00:02:26.727Z,1.40
2018-08-23T00:05:00.758Z,1.47
2018-08-23T00:07:35.369Z,1.17
2018-08-23T00:10:09.222Z,1.27
2018-08-23T00:13:02.742Z,1.20
2018-08-23T00:15:36.746Z,1.43
2018-08-23T00:18:11.706Z,1.30
2018-08-23T00:20:46.480Z,1.20
2018-08-23T00:23:20.318Z,1.33
2018-08-23T00:26:00.806Z,1.40
2018-08-23T00:28:34.701Z,1.27
2018-08-23T00:31:09.775Z,1.47
2018-08-23T00:33:44.160Z,1.40
2018-08-23T00:36:18.221Z,1.40
2018-08-23T00:38:53.083Z,1.03
2018-08-23T00:41:28.124Z,1.43
2018-08-23T00:44:02.684Z,1.30
2018-08-23T00:46:36.846Z,1.10
2018-08-23T00:49:11.193Z,1.20
2018-08-23T00:51:45.493Z,1.10
2018-08-23T00:54:19.574Z,1.60
2018-08-23T00:56:54.542Z,1.23
2018-08-23T00:59:28.560Z,1.50
2018-08-23T01:02:06.859Z,1.40
2018-08-23T01:04:48.014Z,1.10
2018-08-23T01:07:24.543Z,1.40
2018-08-23T01:09:58.516Z,1.30
2018-08-23T01:12:32.524Z,1.30
2018-08-23T01:15:06.864Z,0.90
2018-08-23T01:17:41.069Z,1.30
2018-08-23T01:20:14.990Z,1.30
2018-08-23T01:22:55.189Z,1.40
2018-08-23T01:25:32.690Z,1.30
2018-08-23T01:28:07.401Z,1.40
2018-08-23T01:30:42.367Z,1.40
2018-08-23T01:33:17.551Z,1.10
2018-08-23T01:35:52.657Z,1.30
2018-08-23T01:38:26.781Z,1.37
2018-08-23T01:41:06.134Z,1.33
2018-08-23T01:43:40.181Z,1.20
2018-08-23T01:46:14.472Z,1.50
2018-08-23T01:48:53.259Z,1.20
2018-08-23T01:51:27.138Z,1.20
2018-08-23T01:54:01.673Z,1.27
2018-08-23T01:56:36.211Z,1.27
2018-08-23T01:59:10.867Z,1.30
2018-08-23T02:01:44.828Z,1.30
2018-08-23T02:04:19.045Z,1.10
2018-08-23T02:06:52.984Z,1.43
2018-08-23T02:09:27.062Z,1.40
2018-08-23T02:12:02.149Z,1.33
2018-08-23T02:14:45.320Z,1.27
2018-08-23T02:17:19.456Z,1.20
2018-08-23T02:19:54.442Z,1.40
2018-08-23T02:22:28.531Z,1.23
2018-08-23T02:25:02.639Z,1.20
2018-08-23T02:27:39.307Z,1.50
2018-08-23T02:30:13.592Z,1.43
2018-08-23T02:32:48.564Z,1.40
2018-08-23T02:35:22.605Z,1.20
2018-08-23T02:37:56.462Z,1.40
2018-08-23T02:40:31.031Z,1.60
2018-08-23T02:43:05.117Z,1.40
2018-08-23T02:45:44.353Z,1.40
2018-08-23T02:48:18.359Z,1.50
2018-08-23T02:50:53.104Z,1.20
2018-08-23T02:53:30.464Z,1.40
2018-08-23T02:56:06.334Z,1.70
2018-08-23T02:58:46.003Z,1.20
2018-08-23T03:01:20.050Z,1.37
2018-08-23T03:04:01.050Z,1.37
2018-08-23T03:06:44.133Z,1.40
2018-08-23T03:09:19.322Z,1.20
2018-08-23T03:11:55.253Z,1.07
2018-08-23T03:14:30.641Z,1.57
2018-08-23T03:17:22.129Z,1.50
2018-08-23T03:20:08.098Z,1.43
2018-08-23T03:22:42.944Z,1.20
2018-08-23T03:25:21.168Z,1.73
2018-08-23T03:27:55.968Z,1.60
2018-08-23T03:30:29.986Z,1.60
2018-08-23T03:33:04.201Z,1.30
2018-08-23T03:35:38.256Z,1.50
2018-08-23T03:38:12.027Z,1.30
2018-08-23T03:40:45.814Z,1.73
2018-08-23T03:43:20.350Z,1.37
2018-08-23T03:45:56.312Z,1.47
2018-08-23T03:48:30.434Z,1.60
2018-08-23T03:51:04.464Z,1.50
2018-08-23T03:53:45.568Z,1.40
2018-08-23T03:56:19.683Z,1.50
2018-08-23T03:58:53.846Z,1.77
2018-08-23T04:01:27.847Z,1.57
2018-08-23T04:04:02.193Z,1.40
2018-08-23T04:06:36.181Z,1.50
2018-08-23T04:09:10.269Z,1.50
2018-08-23T04:11:46.876Z,1.40
2018-08-23T04:14:21.691Z,1.40
2018-08-23T04:16:56.658Z,1.30
2018-08-23T04:19:31.393Z,1.60
2018-08-23T04:22:05.580Z,1.33
2018-08-23T04:24:45.697Z,1.60
2018-08-23T04:27:19.861Z,1.67
2018-08-23T04:29:54.786Z,1.53
2018-08-23T04:32:34.817Z,1.60
2018-08-23T04:35:09.502Z,1.73
2018-08-23T04:37:44.746Z,1.30
2018-08-23T04:40:19.004Z,1.73
2018-08-23T04:42:53.226Z,1.70
2018-08-23T04:45:28.185Z,1.63
2018-08-23T04:48:09.503Z,1.17
2018-08-23T04:50:44.133Z,1.47
2018-08-23T04:53:18.009Z,1.50
2018-08-23T04:55:53.184Z,1.53
2018-08-23T04:58:27.703Z,1.57
2018-08-23T05:01:02.633Z,1.53
2018-08-23T05:03:36.576Z,1.90
2018-08-23T05:06:10.414Z,1.50
2018-08-23T05:08:47.597Z,1.50
2018-08-23T05:11:21.682Z,1.73
2018-08-23T05:13:56.220Z,1.47
2018-08-23T05:16:30.936Z,1.53
2018-08-23T05:19:04.966Z,1.70
2018-08-23T05:21:39.672Z,2.10
2018-08-23T05:24:14.818Z,1.57
2018-08-23T05:26:48.664Z,1.83
2018-08-23T05:29:24.264Z,1.87
2018-08-23T05:31:58.889Z,1.60
2018-08-23T05:34:33.998Z,1.70
2018-08-23T05:37:08.061Z,2.23
2018-08-23T05:39:47.869Z,2.60
2018-08-23T05:42:27.266Z,1.77
2018-08-23T05:45:02.200Z,1.73
2018-08-23T05:47:37.956Z,1.80
2018-08-23T05:50:12.721Z,1.63
2018-08-23T05:52:46.525Z,1.93
2018-08-23T05:55:20.378Z,1.97
2018-08-23T05:57:54.865Z,2.00
2018-08-23T06:00:28.870Z,2.03
2018-08-23T06:03:03.530Z,1.77
2018-08-23T06:05:38.312Z,2.37
2018-08-23T06:08:12.578Z,1.73
2018-08-23T06:10:47.275Z,2.27
2018-08-23T06:13:21.250Z,1.97
2018-08-23T06:15:57.106Z,2.10
2018-08-23T06:18:32.843Z,2.03
2018-08-23T06:21:07.485Z,1.70
2018-08-23T06:24:00.521Z,2.20
2018-08-23T06:26:41.384Z,1.80
2018-08-23T06:29:16.026Z,2.23
2018-08-23T06:31:58.530Z,2.20
2018-08-23T06:34:34.913Z,2.37
2018-08-23T06:37:08.959Z,2.03
2018-08-23T06:39:43.206Z,2.57
2018-08-23T06:42:18.566Z,2.70
2018-08-23T06:44:55.209Z,2.30
2018-08-23T06:47:29.062Z,2.80
2018-08-23T06:50:02.823Z,2.30
2018-08-23T06:52:41.840Z,2.50
2018-08-23T06:55:20.561Z,2.30
2018-08-23T06:58:03.260Z,2.37
2018-08-23T07:00:37.625Z,2.10
2018-08-23T07:03:11.625Z,2.30
2018-08-23T07:05:45.727Z,2.33
2018-08-23T07:08:20.409Z,2.40
2018-08-23T07:10:58.727Z,2.17
2018-08-23T07:13:33.528Z,2.10
2018-08-23T07:16:08.693Z,2.27
2018-08-23T07:18:43.535Z,1.93
2018-08-23T07:21:18.809Z,1.90
2018-08-23T07:23:53.007Z,2.27
2018-08-23T07:26:28.171Z,2.13
2018-08-23T07:29:03.159Z,2.10
2018-08-23T07:31:42.005Z,2.20
2018-08-23T07:34:16.324Z,2.07
2018-08-23T07:36:50.457Z,2.13
2018-08-23T07:39:24.493Z,2.10
2018-08-23T07:41:59.099Z,2.40
2018-08-23T07:44:33.581Z,2.33
2018-08-23T07:47:07.577Z,2.10
2018-08-23T07:49:41.952Z,2.60
2018-08-23T07:52:15.793Z,2.63
2018-08-23T07:54:50.260Z,2.03
2018-08-23T07:57:24.917Z,2.17
2018-08-23T08:00:01.680Z,2.00
2018-08-23T08:02:36.285Z,2.23
2018-08-23T08:05:10.591Z,2.10
2018-08-23T08:07:44.562Z,2.40
2018-08-23T08:10:19.093Z,2.40
2018-08-23T08:12:53.190Z,2.00
2018-08-23T08:15:27.061Z,2.00
2018-08-23T08:18:06.766Z,2.50
2018-08-23T08:20:40.641Z,2.00
2018-08-23T08:23:21.972Z,1.80
2018-08-23T08:25:56.933Z,2.07
2018-08-23T08:28:30.957Z,2.07
2018-08-23T08:31:05.680Z,2.10
2018-08-23T08:33:40.546Z,2.20
2018-08-23T08:36:15.958Z,2.17
2018-08-23T08:38:50.838Z,2.67
2018-08-23T08:41:25.544Z,2.13
2018-08-23T08:44:00.094Z,1.77
2018-08-23T08:46:34.721Z,1.80
2018-08-23T08:49:09.093Z,2.37
2018-08-23T08:51:44.544Z,2.60
2018-08-23T08:54:19.566Z,2.17
2018-08-23T08:56:55.289Z,2.20
2018-08-23T08:59:30.498Z,1.90
2018-08-23T09:02:05.003Z,2.03
2018-08-23T09:04:40.325Z,2.03
2018-08-23T09:07:14.983Z,1.90
2018-08-23T09:09:48.859Z,1.40
2018-08-23T09:12:22.901Z,1.83
2018-08-23T09:14:56.795Z,1.90
2018-08-23T09:17:43.447Z,2.00
2018-08-23T09:20:18.727Z,1.40
2018-08-23T09:22:54.755Z,1.93
2018-08-23T09:25:33.882Z,1.87
2018-08-23T09:28:07.846Z,2.13
2018-08-23T09:30:42.445Z,1.30
2018-08-23T09:33:22.832Z,1.60
2018-08-23T09:35:56.929Z,1.50
2018-08-23T09:38:31.313Z,1.70
2018-08-23T09:41:05.808Z,1.60
2018-08-23T09:43:40.185Z,2.00
2018-08-23T09:46:15.017Z,1.40
2018-08-23T09:48:49.557Z,1.40
2018-08-23T09:51:30.190Z,1.60
2018-08-23T09:54:04.283Z,1.30
2018-08-23T09:56:38.591Z,1.37
2018-08-23T09:59:12.477Z,1.40
2018-08-23T10:01:52.167Z,1.57
2018-08-23T10:04:32.360Z,1.67
2018-08-23T10:07:11.364Z,1.50
2018-08-23T10:09:50.812Z,1.30
2018-08-23T10:12:30.209Z,1.30
2018-08-23T10:15:09.760Z,1.20
2018-08-23T10:17:50.371Z,1.60
2018-08-23T10:20:29.927Z,1.50
2018-08-23T10:23:10.188Z,1.30
2018-08-23T10:25:46.701Z,1.30
2018-08-23T10:28:23.917Z,1.70
2018-08-23T10:30:58.010Z,1.50
2018-08-23T10:33:32.670Z,1.50
2018-08-23T10:36:07.514Z,1.60
2018-08-23T10:38:41.782Z,1.27
2018-08-23T10:41:15.662Z,1.53
2018-08-23T10:43:49.562Z,1.90
2018-08-23T10:46:24.106Z,1.57
2018-08-23T10:48:58.995Z,1.40
2018-08-23T10:51:33.078Z,1.80
2018-08-23T10:54:08.305Z,1.60
2018-08-23T10:56:42.307Z,1.70
2018-08-23T10:59:16.725Z,1.60
2018-08-23T11:01:50.743Z,1.63
2018-08-23T11:04:25.094Z,1.60
2018-08-23T11:06:59.590Z,1.83
2018-08-23T11:09:40.099Z,1.40
2018-08-23T11:12:19.459Z,1.73
2018-08-23T11:14:53.460Z,1.67
2018-08-23T11:17:32.433Z,2.00
2018-08-23T11:20:12.035Z,1.50
2018-08-23T11:22:46.110Z,1.43
2018-08-23T11:25:21.238Z,1.60
2018-08-23T11:27:56.595Z,1.37
2018-08-23T11:30:32.281Z,1.30
2018-08-23T11:33:09.104Z,1.40
2018-08-23T11:35:43.779Z,1.20
2018-08-23T11:38:21.685Z,1.23
2018-08-23T11:40:55.723Z,1.00
2018-08-23T11:43:30.464Z,1.13
2018-08-23T11:46:10.224Z,1.50
2018-08-23T11:48:45.766Z,1.20
2018-08-23T11:51:26.991Z,1.10
2018-08-23T11:54:01.273Z,1.37
2018-08-23T11:56:35.637Z,1.37
2018-08-23T11:59:09.764Z,1.40
2018-08-23T12:01:43.879Z,1.00
2018-08-23T12:04:17.663Z,1.30
2018-08-23T12:06:55.840Z,1.10
2018-08-23T12:09:33.977Z,1.40
2018-08-23T12:12:09.257Z,1.23
2018-08-23T12:14:44.190Z,1.00
2018-08-23T12:17:18.084Z,1.30
2018-08-23T12:19:52.193Z,1.00
2018-08-23T12:22:31.631Z,0.93
2018-08-23T12:25:05.636Z,1.17
2018-08-23T12:27:40.117Z,1.10
2018-08-23T12:30:14.303Z,1.30
2018-08-23T12:32:48.311Z,1.20
2018-08-23T12:35:23.228Z,0.93
2018-08-23T12:38:04.885Z,0.97
2018-08-23T12:40:44.860Z,1.10
2018-08-23T12:43:21.315Z,1.30
2018-08-23T12:45:55.891Z,1.37
2018-08-23T12:48:30.908Z,1.17
2018-08-23T12:51:05.733Z,1.20
2018-08-23T12:53:39.542Z,1.47
2018-08-23T12:56:13.464Z,1.10
2018-08-23T12:58:47.989Z,1.30
2018-08-23T13:01:22.192Z,1.97
2018-08-23T13:03:57.027Z,1.70
2018-08-23T13:06:32.363Z,1.83
2018-08-23T13:09:06.648Z,1.57
2018-08-23T13:11:40.619Z,2.23
2018-08-23T13:14:14.933Z,2.10
2018-08-23T13:16:48.994Z,2.77
2018-08-23T13:19:23.833Z,2.43
2018-08-23T13:22:02.837Z,2.60
2018-08-23T13:25:11.046Z,2.90
2018-08-23T13:27:46.641Z,3.47
2018-08-23T13:30:21.926Z,3.33
2018-08-23T13:32:56.746Z,3.23
2018-08-23T13:35:30.626Z,3.37
2018-08-23T13:38:04.912Z,3.50
2018-08-23T13:40:39.270Z,3.50
2018-08-23T13:43:14.514Z,3.33
2018-08-23T13:45:49.098Z,3.50
2018-08-23T13:48:22.902Z,3.73
2018-08-23T13:50:57.470Z,3.50
2018-08-23T13:53:31.544Z,4.30
2018-08-23T13:56:06.637Z,4.70
2018-08-23T13:58:40.811Z,4.57
2018-08-23T14:01:14.945Z,4.47
2018-08-23T14:03:49.617Z,4.23
2018-08-23T14:06:24.559Z,4.40
2018-08-23T14:08:59.721Z,4.40
2018-08-23T14:11:35.908Z,4.60
2018-08-23T14:14:09.919Z,5.30
2018-08-23T14:16:44.659Z,5.10
2018-08-23T14:19:19.387Z,4.63
2018-08-23T14:21:53.338Z,5.33
2018-08-23T14:24:27.109Z,4.63
2018-08-23T14:27:02.521Z,4.70
2018-08-23T14:29:36.880Z,4.60
2018-08-23T14:32:11.139Z,4.00
2018-08-23T14:34:45.971Z,4.03
2018-08-23T14:37:21.769Z,3.80
2018-08-23T14:39:55.866Z,4.23
2018-08-23T14:42:30.709Z,4.20
2018-08-23T14:45:05.617Z,3.70
2018-08-23T14:47:44.726Z,3.33
2018-08-23T14:50:18.663Z,3.37
2018-08-23T14:52:53.149Z,3.17
2018-08-23T14:55:32.365Z,2.87
2018-08-23T14:58:06.607Z,2.57
2018-08-23T15:00:40.682Z,2.70
2018-08-23T15:03:15.339Z,2.00
2018-08-23T15:05:49.258Z,2.10
2018-08-23T15:08:23.669Z,1.93
2018-08-23T15:10:57.592Z,2.10
2018-08-23T15:13:31.681Z,1.70
2018-08-23T15:16:06.279Z,1.90
2018-08-23T15:18:41.310Z,1.80
2018-08-23T15:21:16.209Z,1.70
2018-08-23T15:23:51.469Z,1.30
2018-08-23T15:26:26.506Z,1.43
2018-08-23T15:29:01.714Z,1.20
2018-08-23T15:31:36.363Z,1.20
2018-08-23T15:34:10.349Z,1.63
2018-08-23T15:36:44.270Z,1.47
2018-08-23T15:39:18.839Z,1.20
2018-08-23T15:41:52.891Z,1.20
2018-08-23T15:44:28.180Z,1.50
2018-08-23T15:47:02.210Z,1.50
2018-08-23T15:49:36.652Z,1.33
2018-08-23T15:52:10.669Z,1.10
2018-08-23T15:54:46.342Z,1.20
2018-08-23T15:57:20.929Z,1.27
2018-08-23T15:59:55.553Z,1.20
2018-08-23T16:02:29.574Z,1.10
2018-08-23T16:05:03.573Z,1.30
2018-08-23T16:07:38.308Z,1.27
2018-08-23T16:10:12.894Z,1.20
2018-08-23T16:12:47.505Z,1.40
2018-08-23T16:15:23.258Z,1.30
2018-08-23T16:18:03.336Z,1.30
2018-08-23T16:20:42.676Z,1.20
2018-08-23T16:23:17.899Z,1.30
2018-08-23T16:25:53.326Z,1.27
2018-08-23T16:28:27.377Z,1.43
2018-08-23T16:31:02.423Z,1.33
2018-08-23T16:33:37.052Z,1.30
2018-08-23T16:36:11.257Z,1.07
2018-08-23T16:38:45.262Z,1.30
2018-08-23T16:41:19.274Z,1.30
2018-08-23T16:43:53.324Z,1.07
2018-08-23T16:46:27.568Z,1.30
2018-08-23T16:49:02.194Z,1.40
2018-08-23T16:51:36.955Z,1.17
2018-08-23T16:54:11.190Z,1.47
2018-08-23T16:56:45.222Z,1.30
2018-08-23T16:59:19.311Z,1.10
2018-08-23T17:01:53.881Z,1.00
2018-08-23T17:04:33.414Z,1.47
2018-08-23T17:07:07.941Z,1.40
2018-08-23T17:09:42.034Z,1.20
2018-08-23T17:12:16.125Z,1.20
2018-08-23T17:14:50.239Z,1.17
2018-08-23T17:17:30.593Z,1.50
2018-08-23T17:20:05.633Z,1.17
2018-08-23T17:22:39.863Z,1.27
2018-08-23T17:25:14.637Z,1.37
2018-08-23T17:27:48.899Z,1.20
2018-08-23T17:30:22.843Z,1.50
2018-08-23T17:32:57.125Z,1.67
2018-08-23T17:35:31.874Z,1.40
2018-08-23T17:38:06.781Z,1.40
2018-08-23T17:40:41.009Z,1.20
2018-08-23T17:43:15.135Z,1.10
2018-08-23T17:45:50.635Z,1.50
2018-08-23T17:48:25.705Z,1.40
2018-08-23T17:50:59.605Z,1.33
2018-08-23T17:53:33.499Z,1.10
2018-08-23T17:56:07.793Z,1.33
2018-08-23T17:58:41.673Z,1.40
2018-08-23T18:01:16.252Z,1.50
2018-08-23T18:03:50.199Z,1.43
2018-08-23T18:06:25.072Z,1.60
2018-08-23T18:08:59.834Z,1.63
2018-08-23T18:11:33.822Z,1.50
2018-08-23T18:14:08.422Z,1.40
2018-08-23T18:16:47.725Z,1.57
2018-08-23T18:19:22.432Z,1.43
2018-08-23T18:21:56.615Z,1.83
2018-08-23T18:24:31.056Z,1.70
2018-08-23T18:27:06.515Z,2.10
2018-08-23T18:29:41.020Z,1.70
2018-08-23T18:32:15.066Z,1.60
2018-08-23T18:34:48.746Z,1.60
2018-08-23T18:37:22.754Z,1.90
2018-08-23T18:39:56.576Z,1.80
2018-08-23T18:42:30.458Z,2.07
2018-08-23T18:45:04.435Z,1.70
2018-08-23T18:47:39.531Z,1.70
2018-08-23T18:50:13.625Z,1.67
2018-08-23T18:52:47.432Z,1.60
2018-08-23T18:55:21.269Z,1.83
2018-08-23T18:57:56.691Z,2.33
2018-08-23T19:00:30.633Z,2.30
2018-08-23T19:03:04.833Z,2.07
2018-08-23T19:05:39.580Z,2.30
2018-08-23T19:08:13.469Z,2.27
2018-08-23T19:10:47.900Z,2.37
2018-08-23T19:13:22.041Z,1.90
2018-08-23T19:16:02.156Z,1.90
2018-08-23T19:18:36.475Z,2.00
2018-08-23T19:21:11.112Z,2.13
2018-08-23T19:23:45.344Z,2.03
2018-08-23T19:26:19.145Z,2.60
2018-08-23T19:28:53.206Z,1.87
2018-08-23T19:31:27.125Z,2.17
2018-08-23T19:34:02.347Z,2.37
2018-08-23T19:36:36.922Z,2.13
2018-08-23T19:39:12.296Z,2.00
2018-08-23T19:41:46.567Z,2.23
2018-08-23T19:44:21.224Z,2.30
2018-08-23T19:47:01.822Z,2.23
2018-08-23T19:49:41.529Z,2.17
2018-08-23T19:52:17.278Z,2.17
2018-08-23T19:54:51.539Z,2.37
2018-08-23T19:57:26.239Z,2.40
2018-08-23T20:00:00.312Z,2.27
2018-08-23T20:02:34.242Z,2.30
2018-08-23T20:05:08.363Z,2.27
2018-08-23T20:07:42.409Z,2.13
2018-08-23T20:10:17.735Z,2.67
2018-08-23T20:12:52.506Z,2.43
2018-08-23T20:15:27.175Z,2.40
2018-08-23T20:18:01.142Z,2.30
2018-08-23T20:20:35.541Z,2.30
2018-08-23T20:23:10.465Z,2.67
2018-08-23T20:25:44.526Z,2.80
2018-08-23T20:28:18.558Z,2.67
2018-08-23T20:30:52.465Z,2.33
2018-08-23T20:33:26.274Z,2.47
2018-08-23T20:36:00.477Z,2.20
2018-08-23T20:38:34.534Z,2.63
2018-08-23T20:41:08.603Z,2.70
2018-08-23T20:43:44.080Z,2.80
2018-08-23T20:46:19.667Z,2.50
2018-08-23T20:48:53.689Z,2.30
2018-08-23T20:51:28.160Z,2.53
2018-08-23T20:54:02.236Z,2.50
2018-08-23T20:56:36.150Z,2.43
2018-08-23T20:59:10.926Z,2.70
2018-08-23T21:01:45.512Z,3.17
2018-08-23T21:04:19.594Z,2.83
2018-08-23T21:06:53.949Z,2.70
2018-08-23T21:09:28.054Z,2.67
2018-08-23T21:12:02.274Z,2.90
2018-08-23T21:14:36.063Z,2.70
2018-08-23T21:17:10.035Z,2.97
2018-08-23T21:19:44.000Z,2.53
2018-08-23T21:22:18.378Z,3.00
2018-08-23T21:24:52.299Z,3.10
2018-08-23T21:27:26.438Z,3.03
2018-08-23T21:30:00.392Z,3.17
2018-08-23T21:32:34.769Z,3.20
2018-08-23T21:35:08.784Z,2.70
2018-08-23T21:37:44.593Z,3.30
2018-08-23T21:40:19.531Z,3.20
2018-08-23T21:42:54.968Z,2.93
2018-08-23T21:45:29.741Z,2.97
2018-08-23T21:48:05.113Z,3.10
2018-08-23T21:50:40.971Z,2.73
2018-08-23T21:53:15.322Z,2.70
2018-08-23T21:55:50.187Z,3.13
2018-08-23T21:58:24.778Z,3.10
2018-08-23T22:01:08.193Z,3.00
2018-08-23T22:03:42.188Z,3.00
2018-08-23T22:06:15.965Z,3.33
2018-08-23T22:08:50.793Z,3.17
2018-08-23T22:11:31.834Z,3.10
2018-08-23T22:14:06.631Z,3.17
2018-08-23T22:16:41.852Z,3.27
2018-08-23T22:19:16.259Z,3.20
2018-08-23T22:21:51.443Z,3.10
2018-08-23T22:24:25.396Z,3.67
2018-08-23T22:27:00.427Z,3.37
2018-08-23T22:29:34.941Z,3.20
2018-08-23T22:32:09.751Z,3.33
2018-08-23T22:34:43.965Z,3.47
2018-08-23T22:37:18.042Z,3.47
2018-08-23T22:39:51.724Z,3.50
2018-08-23T22:42:25.822Z,3.40
2018-08-23T22:45:00.324Z,3.80
2018-08-23T22:47:34.279Z,3.43
2018-08-23T22:50:08.199Z,3.37
2018-08-23T22:52:43.068Z,3.40
2018-08-23T22:55:17.632Z,3.50
2018-08-23T22:57:51.661Z,3.60
2018-08-23T23:00:31.598Z,3.97
2018-08-23T23:03:11.398Z,3.20
2018-08-23T23:05:45.979Z,3.10
2018-08-23T23:08:20.112Z,3.17
2018-08-23T23:10:54.153Z,3.60
2018-08-23T23:13:28.259Z,3.10
2018-08-23T23:16:02.332Z,3.50
2018-08-23T23:18:37.181Z,3.10
2018-08-23T23:21:11.597Z,3.43
2018-08-23T23:23:46.451Z,3.43
2018-08-23T23:26:20.351Z,3.43
2018-08-23T23:28:54.685Z,3.63
2018-08-23T23:31:29.263Z,3.10
2018-08-23T23:34:03.349Z,3.30
2018-08-23T23:36:37.496Z,3.20
2018-08-23T23:39:11.753Z,3.30
2018-08-23T23:41:45.661Z,3.60
2018-08-23T23:44:19.743Z,3.50
2018-08-23T23:46:54.251Z,3.60
2018-08-23T23:49:28.831Z,3.47
2018-08-23T23:52:03.290Z,3.83
2018-08-23T23:54:37.247Z,3.63
2018-08-23T23:57:11.318Z,3.87
2018-08-23T23:59:49.007Z,3.13
